createdAt,value
2018-06-16T00:02:12.166Z,121.70
2018-06-16T00:04:43.179Z,118.28
2018-06-16T00:07:14.148Z,117.80
2018-06-16T00:09:45.683Z,119.90
2018-06-16T00:12:16.652Z,118.90
2018-06-16T00:14:47.730Z,121.28
2018-06-16T00:17:18.650Z,123.95
2018-06-16T00:19:50.017Z,124.18
2018-06-16T00:22:21.016Z,116.70
2018-06-16T00:24:56.175Z,123.18
2018-06-16T00:27:27.831Z,119.15
2018-06-16T00:29:58.990Z,120.37
2018-06-16T00:32:29.907Z,121.47
2018-06-16T00:35:01.009Z,124.30
2018-06-16T00:37:32.041Z,120.90
2018-06-16T00:40:03.098Z,122.75
2018-06-16T00:42:34.205Z,127.35
2018-06-16T00:45:05.742Z,125.65
2018-06-16T00:47:36.844Z,128.82
2018-06-16T00:50:07.789Z,124.40
2018-06-16T00:52:38.761Z,124.45
2018-06-16T00:55:09.844Z,124.25
2018-06-16T00:57:48.209Z,122.82
2018-06-16T01:00:20.305Z,122.82
2018-06-16T01:02:51.232Z,127.12
2018-06-16T01:05:22.287Z,127.27
2018-06-16T01:07:55.683Z,122.05
2018-06-16T01:10:27.914Z,127.92
2018-06-16T01:12:58.821Z,123.87
2018-06-16T01:15:29.938Z,124.20
2018-06-16T01:18:00.965Z,119.30
2018-06-16T01:20:34.795Z,121.13
2018-06-16T01:23:09.945Z,123.82
2018-06-16T01:25:43.383Z,115.88
2018-06-16T01:28:14.714Z,122.42
2018-06-16T01:30:45.811Z,117.13
2018-06-16T01:33:16.787Z,117.40
2018-06-16T01:35:47.876Z,120.80
2018-06-16T01:38:18.966Z,124.18
2018-06-16T01:40:50.005Z,122.62
2018-06-16T01:43:20.981Z,124.42
2018-06-16T01:45:52.090Z,125.47
2018-06-16T01:48:23.228Z,128.25
2018-06-16T01:50:54.612Z,126.80
2018-06-16T01:53:25.683Z,126.00
2018-06-16T01:55:57.104Z,129.20
2018-06-16T01:58:28.181Z,124.15
2018-06-16T02:00:59.172Z,129.85
2018-06-16T02:03:30.227Z,125.95
2018-06-16T02:06:01.431Z,123.53
2018-06-16T02:08:32.432Z,123.45
2018-06-16T02:11:04.145Z,125.02
2018-06-16T02:13:35.307Z,121.42
2018-06-16T02:16:06.446Z,117.47
2018-06-16T02:18:37.374Z,124.10
2018-06-16T02:21:08.628Z,120.90
2018-06-16T02:23:39.612Z,118.22
2018-06-16T02:26:10.847Z,122.35
2018-06-16T02:28:41.845Z,124.60
2018-06-16T02:31:13.077Z,125.02
2018-06-16T02:33:45.350Z,125.20
2018-06-16T02:36:16.363Z,122.95
2018-06-16T02:38:47.269Z,123.22
2018-06-16T02:41:18.366Z,122.80
2018-06-16T02:43:49.374Z,129.85
2018-06-16T02:46:20.524Z,123.25
2018-06-16T02:48:52.040Z,124.07
2018-06-16T02:51:23.474Z,125.75
2018-06-16T02:53:54.528Z,121.40
2018-06-16T02:56:25.546Z,124.02
2018-06-16T02:58:56.483Z,125.15
2018-06-16T03:01:27.550Z,128.27
2018-06-16T03:03:58.500Z,124.15
2018-06-16T03:06:29.649Z,120.30
2018-06-16T03:09:00.695Z,125.97
2018-06-16T03:11:31.919Z,127.12
2018-06-16T03:14:02.949Z,127.17
2018-06-16T03:16:34.120Z,125.40
2018-06-16T03:19:05.260Z,129.35
2018-06-16T03:21:36.223Z,126.15
2018-06-16T03:24:07.357Z,122.25
2018-06-16T03:26:38.333Z,125.20
2018-06-16T03:29:09.384Z,123.70
2018-06-16T03:31:40.766Z,122.78
2018-06-16T03:34:11.726Z,127.17
2018-06-16T03:36:42.816Z,123.85
2018-06-16T03:39:13.707Z,120.65
2018-06-16T03:41:44.784Z,129.90
2018-06-16T03:44:15.726Z,125.40
2018-06-16T03:46:46.643Z,125.27
2018-06-16T03:49:17.621Z,129.42
2018-06-16T03:51:48.544Z,128.62
2018-06-16T03:54:19.571Z,126.25
2018-06-16T03:56:50.514Z,123.47
2018-06-16T03:59:21.564Z,126.25
2018-06-16T04:01:52.575Z,123.90
2018-06-16T04:04:23.549Z,129.32
2018-06-16T04:06:54.696Z,129.47
2018-06-16T04:09:25.653Z,127.17
2018-06-16T04:11:56.637Z,127.85
2018-06-16T04:14:27.749Z,124.45
2018-06-16T04:16:58.730Z,129.10
2018-06-16T04:19:29.779Z,131.52
2018-06-16T04:22:00.713Z,124.75
2018-06-16T04:24:32.230Z,126.55
2018-06-16T04:27:03.221Z,126.35
2018-06-16T04:29:34.308Z,129.38
2018-06-16T04:32:05.572Z,124.07
2018-06-16T04:34:36.977Z,129.57
2018-06-16T04:37:08.037Z,132.63
2018-06-16T04:39:39.124Z,130.57
2018-06-16T04:42:10.142Z,133.60
2018-06-16T04:44:41.067Z,128.38
2018-06-16T04:47:12.061Z,134.85
2018-06-16T04:49:43.005Z,128.78
2018-06-16T04:52:14.035Z,126.85
2018-06-16T04:54:45.114Z,132.57
2018-06-16T04:57:16.186Z,127.70
2018-06-16T04:59:47.293Z,123.58
2018-06-16T05:02:18.318Z,123.15
2018-06-16T05:04:49.361Z,130.47
2018-06-16T05:07:20.452Z,128.87
2018-06-16T05:09:51.393Z,129.80
2018-06-16T05:12:22.412Z,128.45
2018-06-16T05:14:53.449Z,126.53
2018-06-16T05:17:24.593Z,127.47
2018-06-16T05:19:55.464Z,128.72
2018-06-16T05:22:26.525Z,129.82
2018-06-16T05:24:57.619Z,132.30
2018-06-16T05:27:28.804Z,127.27
2018-06-16T05:29:59.904Z,134.12
2018-06-16T05:32:31.083Z,135.43
2018-06-16T05:35:02.199Z,136.00
2018-06-16T05:37:33.193Z,136.10
2018-06-16T05:40:04.645Z,138.62
2018-06-16T05:42:36.012Z,134.97
2018-06-16T05:45:07.237Z,132.85
2018-06-16T05:47:38.373Z,136.12
2018-06-16T05:50:09.336Z,136.82
2018-06-16T05:52:40.549Z,134.03
2018-06-16T05:55:11.486Z,131.90
2018-06-16T05:57:42.628Z,135.25
2018-06-16T06:00:13.637Z,135.43
2018-06-16T06:02:44.806Z,130.50
2018-06-16T06:05:15.827Z,137.15
2018-06-16T06:07:46.897Z,144.93
2018-06-16T06:10:17.910Z,140.70
2018-06-16T06:12:49.106Z,140.90
2018-06-16T06:15:20.252Z,142.93
2018-06-16T06:17:51.260Z,141.00
2018-06-16T06:20:22.334Z,137.05
2018-06-16T06:22:53.375Z,135.60
2018-06-16T06:25:24.353Z,145.32
2018-06-16T06:27:55.465Z,143.07
2018-06-16T06:30:26.552Z,147.75
2018-06-16T06:32:57.545Z,141.47
2018-06-16T06:35:28.681Z,138.45
2018-06-16T06:37:59.876Z,142.87
2018-06-16T06:40:30.935Z,144.97
2018-06-16T06:43:02.224Z,133.67
2018-06-16T06:45:33.190Z,140.40
2018-06-16T06:48:04.505Z,144.17
2018-06-16T06:50:35.374Z,139.92
2018-06-16T06:53:06.518Z,144.53
2018-06-16T06:55:37.682Z,140.97
2018-06-16T06:58:08.665Z,142.35
2018-06-16T07:00:40.008Z,135.15
2018-06-16T07:03:11.103Z,138.07
2018-06-16T07:05:42.231Z,139.32
2018-06-16T07:08:13.357Z,140.68
2018-06-16T07:10:44.674Z,139.88
2018-06-16T07:13:15.778Z,141.77
2018-06-16T07:15:46.826Z,141.05
2018-06-16T07:18:18.014Z,137.22
2018-06-16T07:20:49.130Z,133.97
2018-06-16T07:23:20.185Z,132.18
2018-06-16T07:25:51.313Z,134.75
2018-06-16T07:28:22.547Z,137.80
2018-06-16T07:30:53.560Z,137.97
2018-06-16T07:33:24.587Z,136.37
2018-06-16T07:35:56.041Z,141.28
2018-06-16T07:38:27.966Z,135.45
2018-06-16T07:40:59.145Z,135.95
2018-06-16T07:43:30.205Z,134.85
2018-06-16T07:46:01.433Z,131.10
2018-06-16T07:48:32.575Z,135.63
2018-06-16T07:51:03.849Z,138.77
2018-06-16T07:53:34.857Z,133.20
2018-06-16T07:56:05.938Z,135.00
2018-06-16T07:58:36.948Z,135.95
2018-06-16T08:01:07.980Z,135.97
2018-06-16T08:03:39.514Z,144.97
2018-06-16T08:06:10.472Z,142.80
2018-06-16T08:08:41.613Z,133.52
2018-06-16T08:11:12.821Z,138.57
2018-06-16T08:13:44.102Z,139.37
2018-06-16T08:16:15.337Z,142.15
2018-06-16T08:18:46.542Z,143.90
2018-06-16T08:21:17.775Z,133.63
2018-06-16T08:23:48.841Z,143.22
2018-06-16T08:26:19.854Z,136.35
2018-06-16T08:28:50.924Z,135.63
2018-06-16T08:31:22.166Z,137.75
2018-06-16T08:33:53.285Z,136.35
2018-06-16T08:36:24.405Z,137.55
2018-06-16T08:38:55.566Z,140.40
2018-06-16T08:41:26.746Z,134.82
2018-06-16T08:43:57.942Z,136.03
2018-06-16T08:46:29.003Z,136.57
2018-06-16T08:49:00.092Z,138.95
2018-06-16T08:51:31.183Z,136.50
2018-06-16T08:54:02.340Z,135.63
2018-06-16T08:56:33.359Z,141.00
2018-06-16T08:59:04.462Z,136.97
2018-06-16T09:01:35.507Z,134.60
2018-06-16T09:04:06.684Z,135.75
2018-06-16T09:06:39.201Z,138.43
2018-06-16T09:09:10.932Z,140.37
2018-06-16T09:11:41.919Z,141.25
2018-06-16T09:14:12.958Z,138.60
2018-06-16T09:16:44.049Z,140.18
2018-06-16T09:19:15.322Z,139.62
2018-06-16T09:21:46.939Z,135.93
2018-06-16T09:24:17.905Z,142.03
2018-06-16T09:26:48.841Z,139.85
2018-06-16T09:29:20.031Z,134.25
2018-06-16T09:31:51.093Z,137.77
2018-06-16T09:34:22.208Z,127.07
2018-06-16T09:36:53.354Z,133.40
2018-06-16T09:39:24.460Z,135.45
2018-06-16T09:41:56.886Z,135.30
2018-06-16T09:44:28.379Z,133.00
2018-06-16T09:46:59.626Z,136.18
2018-06-16T09:49:30.585Z,138.47
2018-06-16T09:52:01.719Z,137.60
2018-06-16T09:54:33.124Z,132.40
2018-06-16T09:57:04.257Z,134.75
2018-06-16T09:59:35.426Z,133.20
2018-06-16T10:02:06.519Z,133.40
2018-06-16T10:04:37.712Z,130.07
2018-06-16T10:07:08.640Z,137.57
2018-06-16T10:09:39.712Z,133.03
2018-06-16T10:12:10.962Z,135.60
2018-06-16T10:14:42.582Z,139.05
2018-06-16T10:17:13.504Z,134.37
2018-06-16T10:19:44.693Z,134.05
2018-06-16T10:22:15.825Z,131.30
2018-06-16T10:24:46.857Z,135.45
2018-06-16T10:27:19.557Z,130.97
2018-06-16T10:29:50.777Z,134.72
2018-06-16T10:32:21.856Z,132.47
2018-06-16T10:34:53.195Z,136.70
2018-06-16T10:37:24.325Z,136.22
2018-06-16T10:39:55.329Z,131.30
2018-06-16T10:42:26.441Z,132.60
2018-06-16T10:44:57.553Z,133.22
2018-06-16T10:47:28.778Z,134.10
2018-06-16T10:49:59.728Z,132.10
2018-06-16T10:52:31.231Z,127.22
2018-06-16T10:55:02.290Z,127.92
2018-06-16T10:57:33.530Z,135.50
2018-06-16T11:00:04.736Z,136.68
2018-06-16T11:05:11.898Z,135.68
2018-06-16T11:07:42.936Z,135.30
2018-06-16T11:10:14.091Z,134.67
2018-06-16T11:12:45.196Z,136.30
2018-06-16T11:15:16.188Z,134.47
2018-06-16T11:17:47.556Z,136.40
2018-06-16T11:20:18.433Z,133.85
2018-06-16T11:22:49.505Z,132.85
2018-06-16T11:25:21.461Z,130.95
2018-06-16T11:27:55.464Z,136.55
2018-06-16T11:30:28.949Z,138.25
2018-06-16T11:33:05.450Z,131.30
2018-06-16T11:35:43.249Z,130.97
2018-06-16T11:38:14.282Z,132.20
2018-06-16T11:40:45.411Z,130.60
2018-06-16T11:43:16.502Z,128.75
2018-06-16T11:45:47.849Z,136.82
2018-06-16T11:48:18.862Z,127.70
2018-06-16T11:50:49.803Z,129.50
2018-06-16T11:53:21.173Z,130.75
2018-06-16T11:55:52.108Z,130.65
2018-06-16T11:58:23.272Z,134.30
2018-06-16T12:00:54.388Z,134.32
2018-06-16T12:03:25.391Z,128.60
2018-06-16T12:05:56.428Z,128.95
2018-06-16T12:08:27.402Z,130.93
2018-06-16T12:10:58.404Z,136.07
2018-06-16T12:13:29.549Z,135.32
2018-06-16T12:16:00.627Z,133.60
2018-06-16T12:18:31.963Z,136.00
2018-06-16T12:21:04.117Z,132.20
2018-06-16T12:23:35.255Z,131.47
2018-06-16T12:26:06.390Z,132.85
2018-06-16T12:28:37.544Z,128.50
2018-06-16T12:31:08.541Z,132.18
2018-06-16T12:33:39.526Z,134.78
2018-06-16T12:36:10.437Z,128.62
2018-06-16T12:38:41.790Z,133.27
2018-06-16T12:41:12.753Z,129.87
2018-06-16T12:43:43.745Z,137.47
2018-06-16T12:46:14.745Z,129.18
2018-06-16T12:48:45.764Z,131.78
2018-06-16T12:51:16.786Z,133.50
2018-06-16T12:53:47.932Z,132.15
2018-06-16T12:56:18.897Z,136.43
2018-06-16T12:58:49.885Z,138.70
2018-06-16T13:01:21.000Z,138.07
2018-06-16T13:03:52.484Z,136.05
2018-06-16T13:06:23.484Z,134.10
2018-06-16T13:08:54.801Z,133.85
2018-06-16T13:11:25.773Z,138.07
2018-06-16T13:13:56.952Z,144.00
2018-06-16T13:16:27.990Z,145.05
2018-06-16T13:18:59.725Z,141.73
2018-06-16T13:21:30.840Z,140.77
2018-06-16T13:24:02.341Z,136.43
2018-06-16T13:26:33.435Z,141.18
2018-06-16T13:29:04.368Z,138.95
2018-06-16T13:31:35.359Z,140.15
2018-06-16T13:34:06.707Z,147.13
2018-06-16T13:36:37.680Z,139.80
2018-06-16T13:39:10.767Z,142.32
2018-06-16T13:41:42.958Z,139.80
2018-06-16T13:44:14.001Z,133.20
2018-06-16T13:46:45.077Z,134.63
2018-06-16T13:49:16.170Z,135.90
2018-06-16T13:51:47.196Z,133.65
2018-06-16T13:54:18.349Z,133.57
2018-06-16T13:56:49.350Z,140.88
2018-06-16T13:59:20.697Z,138.47
2018-06-16T14:01:51.879Z,142.72
2018-06-16T14:04:22.973Z,141.00
2018-06-16T14:06:54.026Z,143.72
2018-06-16T14:09:25.105Z,146.87
2018-06-16T14:11:56.149Z,145.20
2018-06-16T14:14:27.197Z,151.00
2018-06-16T14:16:58.252Z,144.68
2018-06-16T14:19:29.597Z,142.25
2018-06-16T14:22:00.922Z,147.37
2018-06-16T14:24:32.080Z,148.38
2018-06-16T14:27:03.748Z,141.60
2018-06-16T14:29:34.797Z,141.28
2018-06-16T14:32:05.857Z,138.05
2018-06-16T14:34:36.947Z,149.95
2018-06-16T14:37:07.940Z,141.12
2018-06-16T14:39:39.014Z,138.32
2018-06-16T14:42:10.094Z,141.10
2018-06-16T14:44:41.588Z,141.20
2018-06-16T14:47:12.607Z,138.20
2018-06-16T14:49:44.236Z,150.10
2018-06-16T14:52:15.279Z,148.10
2018-06-16T14:54:46.353Z,137.95
2018-06-16T14:57:17.402Z,143.32
2018-06-16T14:59:49.070Z,142.43
2018-06-16T15:02:21.082Z,142.50
2018-06-16T15:04:52.302Z,138.55
2018-06-16T15:07:27.587Z,141.25
2018-06-16T15:10:02.178Z,143.22
2018-06-16T15:12:34.274Z,148.68
2018-06-16T15:17:43.825Z,145.77
2018-06-16T15:20:15.143Z,143.37
2018-06-16T15:22:46.414Z,143.22
2018-06-16T15:25:17.240Z,147.07
2018-06-16T15:27:48.492Z,137.62
2018-06-16T15:30:19.490Z,135.78
2018-06-16T15:32:51.806Z,139.52
2018-06-16T15:35:23.335Z,143.00
2018-06-16T15:37:54.597Z,146.60
2018-06-16T15:40:26.236Z,142.68
2018-06-16T15:42:57.649Z,140.28
2018-06-16T15:45:28.591Z,139.43
2018-06-16T15:47:59.480Z,140.90
2018-06-16T15:50:30.569Z,138.25
2018-06-16T15:53:01.651Z,139.30
2018-06-16T15:55:32.749Z,139.30
2018-06-16T15:58:03.898Z,144.93
2018-06-16T16:00:35.227Z,146.10
2018-06-16T16:03:06.695Z,144.82
2018-06-16T16:05:37.805Z,146.15
2018-06-16T16:08:08.977Z,144.10
2018-06-16T16:10:39.900Z,142.53
2018-06-16T16:13:11.162Z,140.37
2018-06-16T16:15:43.548Z,148.78
2018-06-16T16:18:14.822Z,142.82
2018-06-16T16:20:45.878Z,151.12
2018-06-16T16:23:17.002Z,151.30
2018-06-16T16:25:48.867Z,144.85
2018-06-16T16:28:20.132Z,142.72
2018-06-16T16:30:51.310Z,143.85
2018-06-16T16:33:22.308Z,148.85
2018-06-16T16:35:53.445Z,138.88
2018-06-16T16:38:24.553Z,146.02
2018-06-16T16:40:55.645Z,141.47
2018-06-16T16:43:26.777Z,142.13
2018-06-16T16:45:58.960Z,144.87
2018-06-16T16:48:30.744Z,148.72
2018-06-16T16:51:01.906Z,141.47
2018-06-16T16:53:33.455Z,147.43
2018-06-16T16:56:04.594Z,149.07
2018-06-16T16:58:35.811Z,142.87
2018-06-16T17:01:07.225Z,146.15
2018-06-16T17:03:38.384Z,145.15
2018-06-16T17:06:09.409Z,142.98
2018-06-16T17:08:40.694Z,153.85
2018-06-16T17:11:11.694Z,151.10
2018-06-16T17:13:43.081Z,151.95
2018-06-16T17:16:14.841Z,145.15
2018-06-16T17:18:45.988Z,151.87
2018-06-16T17:21:17.271Z,147.50
2018-06-16T17:23:48.329Z,142.90
2018-06-16T17:26:25.397Z,150.57
2018-06-16T17:28:56.865Z,146.50
2018-06-16T17:31:28.327Z,146.45
2018-06-16T17:33:59.378Z,142.15
2018-06-16T17:36:30.744Z,143.05
2018-06-16T17:39:01.873Z,145.90
2018-06-16T17:41:33.550Z,145.25
2018-06-16T17:44:05.461Z,144.93
2018-06-16T17:46:36.583Z,148.80
2018-06-16T17:49:07.697Z,147.98
2018-06-16T17:51:38.893Z,150.78
2018-06-16T17:54:10.241Z,146.70
2018-06-16T17:56:41.312Z,144.02
2018-06-16T17:59:12.526Z,144.15
2018-06-16T18:01:44.059Z,142.13
2018-06-16T18:04:15.237Z,142.77
2018-06-16T18:06:46.300Z,138.05
2018-06-16T18:09:17.530Z,144.57
2018-06-16T18:11:49.102Z,148.53
2018-06-16T18:14:20.033Z,148.62
2018-06-16T18:16:51.425Z,145.60
2018-06-16T18:19:23.308Z,143.30
2018-06-16T18:21:54.855Z,145.22
2018-06-16T18:24:26.337Z,146.72
2018-06-16T18:26:57.735Z,145.22
2018-06-16T18:29:29.077Z,143.70
2018-06-16T18:32:00.667Z,148.30
2018-06-16T18:34:31.946Z,139.70
2018-06-16T18:37:03.573Z,140.95
2018-06-16T18:39:34.881Z,143.45
2018-06-16T18:42:07.055Z,136.72
2018-06-16T18:44:38.682Z,147.60
2018-06-16T18:47:10.908Z,147.45
2018-06-16T18:49:42.437Z,149.00
2018-06-16T18:52:13.820Z,149.35
2018-06-16T18:54:45.816Z,142.72
2018-06-16T18:57:17.628Z,147.22
2018-06-16T18:59:50.308Z,151.57
2018-06-16T19:02:21.810Z,149.80
2018-06-16T19:04:53.084Z,147.45
2018-06-16T19:07:24.500Z,148.75
2018-06-16T19:09:55.654Z,151.90
2018-06-16T19:12:26.861Z,146.50
2018-06-16T19:14:59.316Z,143.80
2018-06-16T19:17:31.336Z,146.25
2018-06-16T19:20:04.308Z,151.25
2018-06-16T19:22:36.130Z,143.13
2018-06-16T19:25:07.426Z,155.57
2018-06-16T19:27:38.533Z,149.60
2018-06-16T19:30:09.749Z,148.10
2018-06-16T19:32:41.896Z,148.65
2018-06-16T19:35:13.239Z,148.17
2018-06-16T19:37:44.407Z,191.20
2018-06-16T19:40:15.471Z,208.87
2018-06-16T19:42:46.681Z,172.72
2018-06-16T19:45:17.898Z,161.05
2018-06-16T19:47:49.671Z,150.72
2018-06-16T19:50:21.572Z,156.65
2018-06-16T19:52:52.701Z,150.65
2018-06-16T19:55:24.455Z,151.20
2018-06-16T19:57:55.631Z,152.10
2018-06-16T20:00:26.864Z,149.25
2018-06-16T20:02:59.398Z,141.57
2018-06-16T20:05:30.891Z,148.25
2018-06-16T20:08:01.939Z,147.87
2018-06-16T20:10:33.649Z,147.45
2018-06-16T20:13:04.922Z,146.70
2018-06-16T20:15:36.601Z,149.70
2018-06-16T20:18:07.734Z,152.40
2018-06-16T20:20:40.400Z,150.07
2018-06-16T20:23:11.655Z,147.35
2018-06-16T20:25:43.276Z,149.55
2018-06-16T20:28:16.848Z,150.40
2018-06-16T20:30:48.474Z,152.05
2018-06-16T20:33:19.598Z,149.90
2018-06-16T20:35:50.493Z,150.62
2018-06-16T20:38:22.325Z,150.72
2018-06-16T20:40:53.755Z,150.65
2018-06-16T20:43:25.973Z,145.30
2018-06-16T20:45:57.007Z,147.95
2018-06-16T20:48:28.154Z,145.97
2018-06-16T20:50:59.565Z,145.77
2018-06-16T20:53:30.891Z,140.73
2018-06-16T20:56:02.533Z,184.07
2018-06-16T20:58:33.729Z,160.30
2018-06-16T21:01:04.761Z,143.95
2018-06-16T21:03:36.006Z,137.52
2018-06-16T21:06:07.549Z,140.03
2018-06-16T21:08:38.733Z,141.85
2018-06-16T21:11:11.273Z,145.30
2018-06-16T21:13:42.445Z,143.05
2018-06-16T21:16:13.829Z,144.25
2018-06-16T21:18:45.001Z,148.00
2018-06-16T21:21:16.995Z,146.20
2018-06-16T21:23:48.048Z,149.65
2018-06-16T21:26:19.100Z,149.62
2018-06-16T21:28:50.301Z,147.65
2018-06-16T21:31:21.297Z,146.95
2018-06-16T21:33:52.609Z,146.95
2018-06-16T21:36:23.858Z,147.43
2018-06-16T21:38:54.962Z,144.20
2018-06-16T21:41:25.983Z,147.07
2018-06-16T21:43:57.215Z,147.93
2018-06-16T21:46:28.295Z,143.57
2018-06-16T21:48:59.471Z,140.65
2018-06-16T21:51:31.036Z,142.43
2018-06-16T21:54:02.217Z,146.28
2018-06-16T21:56:33.413Z,142.40
2018-06-16T21:59:05.413Z,142.80
2018-06-16T22:01:37.442Z,141.68
2018-06-16T22:04:09.552Z,139.62
2018-06-16T22:06:40.682Z,153.35
2018-06-16T22:09:12.263Z,141.45
2018-06-16T22:11:44.325Z,142.57
2018-06-16T22:14:15.170Z,138.82
2018-06-16T22:16:47.130Z,145.45
2018-06-16T22:19:18.141Z,140.75
2018-06-16T22:21:49.240Z,142.07
2018-06-16T22:24:21.211Z,139.85
2018-06-16T22:26:52.327Z,139.65
2018-06-16T22:29:23.482Z,140.90
2018-06-16T22:31:55.444Z,141.12
2018-06-16T22:34:26.493Z,142.40
2018-06-16T22:36:58.004Z,144.97
2018-06-16T22:39:29.129Z,138.43
2018-06-16T22:42:00.186Z,147.80
2018-06-16T22:44:31.311Z,132.43
2018-06-16T22:47:02.366Z,134.85
2018-06-16T22:49:33.565Z,137.20
2018-06-16T22:52:04.660Z,135.32
2018-06-16T22:54:35.834Z,136.95
2018-06-16T22:57:07.014Z,134.95
2018-06-16T22:59:38.734Z,136.50
2018-06-16T23:02:10.016Z,132.97
2018-06-16T23:04:42.088Z,138.47
2018-06-16T23:07:13.018Z,139.03
2018-06-16T23:09:44.013Z,142.93
2018-06-16T23:12:14.997Z,141.75
2018-06-16T23:14:46.106Z,140.47
2018-06-16T23:17:17.319Z,136.32
2018-06-16T23:19:48.456Z,137.20
2018-06-16T23:22:20.140Z,131.80
2018-06-16T23:24:51.745Z,132.65
2018-06-16T23:27:22.920Z,135.30
2018-06-16T23:29:54.032Z,129.75
2018-06-16T23:32:25.125Z,131.47
2018-06-16T23:34:56.308Z,133.05
2018-06-16T23:37:27.683Z,131.35
2018-06-16T23:39:59.814Z,132.97
2018-06-16T23:42:31.488Z,133.43
2018-06-16T23:45:02.378Z,136.60
2018-06-16T23:47:33.481Z,133.10
2018-06-16T23:50:04.696Z,138.05
2018-06-16T23:52:35.701Z,138.43
2018-06-16T23:55:06.916Z,133.18
2018-06-16T23:57:37.968Z,131.65
